Airfield :
LOGIN :

Register | Disclaimer

   EN    FR    IT 

 










Legend :    VFR   Marginal VFR   IFR   Intensive IFR   Very Intensive IFR
Visi :
Ceiling :
>= 8 km
>= 3000ft
5 to 8 km
1000 to 3000 ft
1500m to 5 km
500 to 1000 ft
800 to 1500m
200 to 500 ft
< 800m
< 200 ft
Symbols :   Thunderstorms  Fog  Heavy snow  Heavy precipitations  Wind > 20 kt
SIGMETs :     Misc.  Thunderstorms  Icing  Turbulence  Mountain Waves  Volcanic Ashes







- Airport Elevation : 18 ft
- IATA code : AJA
- Download approach charts


LFKJ - Ajaccio

CURRENT METAR :
  • 232200Z AUTO 08005KT 050V110 9999 OVC035 15/13 Q1009 NOSIG

EXPIRED METARs :
  • 232130Z AUTO 09004KT 9999 OVC034 15/13 Q1009 NOSIG
  • 232100Z AUTO 10004KT 9999 SCT024 SCT030 OVC035 15/13 Q1009 NOSIG
  • 232030Z AUTO 10004KT 9999 FEW026 BKN033 BKN039 15/13 Q1009 NOSIG
  • 232000Z AUTO VRB02KT 9999 SCT022 BKN035 BKN043 15/13 Q1008 TEMPO SHRA BKN010 SCT026CB
  • 231930Z AUTO 16003KT 120V200 9000 BKN021 OVC038 15/13 Q1008 TEMPO SHRA BKN010 SCT026CB

TAF TAF LFKJ
Valid from the 23 at 21:00 until the 24 at 21:00 UTC


232000Z 2321/2421 04004KT 9999 SCT030
BECMG 2408/2411 24012KT
TEMPO 2412/2416 SHRA SCT026TCU BKN030
BECMG 2418/2420 05006KT
ATIS : +33 4 95 23 59 85
No reported NOTAMs for that airfield.
1 SIGMET reported for the Marseille FIR (LFMM) :
 
Severe turbulence
LFMM SIGMET 2 VALID 232100/232300 LFPW
LFMM MARSEILLE FIR/UIR SEV TURB FCST WI N4330 E00245 - N4545 E00300 - N4545 E00500 - N4500 E00500 - N4330 E00245 SFC/FL070 STNR INTSF=



MET'MAP, your aeronautical weather chart ! - Copyright ORBIFLY December 2007 - Disclaimer

ORBIFLY MET'MAP TEAM :

Programming & Development : Alexandra Zaïnal
Concept & Development : Baudouin d'Aumeries
Co-Development & Prog : Marc-Olivier Méhu
Technical & hardware support : Manuel Goepfert

Contact : metmap@orbifly.com




SOURCES & CREDITS :

   NOAA